sensor_id;sensor_type;location;lat;lon;timestamp;P1;durP1;ratioP1;P2;durP2;ratioP2
14992;SDS011;7592;51.088;13.732;2023-03-14T00:03:34;3.67;;;0.90;;
14992;SDS011;7592;51.088;13.732;2023-03-14T00:08:26;1.10;;;1.10;;
14992;SDS011;7592;51.088;13.732;2023-03-14T00:13:18;1.40;;;1.00;;
14992;SDS011;7592;51.088;13.732;2023-03-14T00:18:10;1.83;;;1.10;;
14992;SDS011;7592;51.088;13.732;2023-03-14T00:23:02;1.17;;;0.97;;
14992;SDS011;7592;51.088;13.732;2023-03-14T00:27:54;0.77;;;0.77;;
14992;SDS011;7592;51.088;13.732;2023-03-14T00:32:46;1.03;;;0.93;;
14992;SDS011;7592;51.088;13.732;2023-03-14T00:37:38;1.20;;;1.10;;
14992;SDS011;7592;51.088;13.732;2023-03-14T00:42:30;1.93;;;1.63;;
14992;SDS011;7592;51.088;13.732;2023-03-14T00:47:23;1.10;;;1.07;;
14992;SDS011;7592;51.088;13.732;2023-03-14T00:52:16;1.53;;;1.23;;
14992;SDS011;7592;51.088;13.732;2023-03-14T00:57:08;2.50;;;1.73;;
14992;SDS011;7592;51.088;13.732;2023-03-14T01:02:00;1.60;;;1.50;;
14992;SDS011;7592;51.088;13.732;2023-03-14T01:06:52;1.87;;;1.77;;
14992;SDS011;7592;51.088;13.732;2023-03-14T01:11:44;3.17;;;2.30;;
14992;SDS011;7592;51.088;13.732;2023-03-14T01:16:37;2.37;;;2.17;;
14992;SDS011;7592;51.088;13.732;2023-03-14T01:21:31;2.40;;;2.20;;
14992;SDS011;7592;51.088;13.732;2023-03-14T01:26:25;2.13;;;2.03;;
14992;SDS011;7592;51.088;13.732;2023-03-14T01:31:19;3.17;;;2.27;;
14992;SDS011;7592;51.088;13.732;2023-03-14T01:36:13;3.03;;;1.90;;
14992;SDS011;7592;51.088;13.732;2023-03-14T01:41:09;2.93;;;2.13;;
14992;SDS011;7592;51.088;13.732;2023-03-14T01:51:06;2.63;;;2.50;;
14992;SDS011;7592;51.088;13.732;2023-03-14T01:56:02;2.23;;;2.13;;
14992;SDS011;7592;51.088;13.732;2023-03-14T02:00:57;2.70;;;2.60;;
14992;SDS011;7592;51.088;13.732;2023-03-14T02:11:36;2.70;;;2.50;;
14992;SDS011;7592;51.088;13.732;2023-03-14T02:16:39;2.97;;;2.73;;
14992;SDS011;7592;51.088;13.732;2023-03-14T02:22:05;2.20;;;2.10;;
14992;SDS011;7592;51.088;13.732;2023-03-14T02:27:23;3.37;;;3.07;;
14992;SDS011;7592;51.088;13.732;2023-03-14T02:32:16;2.80;;;2.60;;
14992;SDS011;7592;51.088;13.732;2023-03-14T02:37:09;2.73;;;2.60;;
14992;SDS011;7592;51.088;13.732;2023-03-14T02:42:02;3.00;;;2.80;;
14992;SDS011;7592;51.088;13.732;2023-03-14T02:46:56;2.70;;;2.50;;
14992;SDS011;7592;51.088;13.732;2023-03-14T02:51:50;1.47;;;1.47;;
14992;SDS011;7592;51.088;13.732;2023-03-14T02:56:42;1.90;;;1.80;;
14992;SDS011;7592;51.088;13.732;2023-03-14T03:01:36;2.37;;;2.20;;
14992;SDS011;7592;51.088;13.732;2023-03-14T03:06:29;2.60;;;2.40;;
14992;SDS011;7592;51.088;13.732;2023-03-14T03:11:21;1.53;;;1.43;;
14992;SDS011;7592;51.088;13.732;2023-03-14T03:16:13;0.90;;;0.90;;
14992;SDS011;7592;51.088;13.732;2023-03-14T03:21:07;1.80;;;1.00;;
14992;SDS011;7592;51.088;13.732;2023-03-14T03:26:00;0.70;;;0.50;;
14992;SDS011;7592;51.088;13.732;2023-03-14T03:30:54;1.00;;;1.00;;
14992;SDS011;7592;51.088;13.732;2023-03-14T03:35:47;0.57;;;0.57;;
14992;SDS011;7592;51.088;13.732;2023-03-14T03:40:49;1.57;;;0.70;;
14992;SDS011;7592;51.088;13.732;2023-03-14T03:45:43;0.50;;;0.50;;
14992;SDS011;7592;51.088;13.732;2023-03-14T03:50:36;0.30;;;0.30;;
14992;SDS011;7592;51.088;13.732;2023-03-14T03:55:28;0.30;;;0.30;;
14992;SDS011;7592;51.088;13.732;2023-03-14T04:00:20;0.30;;;0.30;;
14992;SDS011;7592;51.088;13.732;2023-03-14T04:05:12;0.40;;;0.40;;
14992;SDS011;7592;51.088;13.732;2023-03-14T04:10:10;0.23;;;0.23;;
14992;SDS011;7592;51.088;13.732;2023-03-14T04:15:10;0.30;;;0.30;;
14992;SDS011;7592;51.088;13.732;2023-03-14T04:20:08;0.23;;;0.23;;
14992;SDS011;7592;51.088;13.732;2023-03-14T04:25:04;0.70;;;0.30;;
14992;SDS011;7592;51.088;13.732;2023-03-14T04:30:05;0.67;;;0.30;;
14992;SDS011;7592;51.088;13.732;2023-03-14T04:35:12;0.70;;;0.13;;
14992;SDS011;7592;51.088;13.732;2023-03-14T04:40:04;6.80;;;5.47;;
14992;SDS011;7592;51.088;13.732;2023-03-14T04:44:59;0.50;;;0.40;;
14992;SDS011;7592;51.088;13.732;2023-03-14T04:49:56;1.73;;;0.30;;
14992;SDS011;7592;51.088;13.732;2023-03-14T04:54:49;0.60;;;0.20;;
14992;SDS011;7592;51.088;13.732;2023-03-14T04:59:42;1.60;;;0.30;;
14992;SDS011;7592;51.088;13.732;2023-03-14T05:04:58;2.63;;;0.60;;
14992;SDS011;7592;51.088;13.732;2023-03-14T05:10:22;2.00;;;0.30;;
14992;SDS011;7592;51.088;13.732;2023-03-14T05:15:33;1.27;;;0.50;;
14992;SDS011;7592;51.088;13.732;2023-03-14T05:20:45;1.77;;;0.67;;
14992;SDS011;7592;51.088;13.732;2023-03-14T05:26:03;2.20;;;0.73;;
14992;SDS011;7592;51.088;13.732;2023-03-14T05:31:21;2.47;;;0.97;;
14992;SDS011;7592;51.088;13.732;2023-03-14T05:36:31;1.77;;;0.40;;
14992;SDS011;7592;51.088;13.732;2023-03-14T05:41:58;2.47;;;0.93;;
14992;SDS011;7592;51.088;13.732;2023-03-14T05:47:07;3.83;;;0.80;;
14992;SDS011;7592;51.088;13.732;2023-03-14T05:52:19;4.57;;;0.90;;
14992;SDS011;7592;51.088;13.732;2023-03-14T05:57:20;14.83;;;3.53;;
14992;SDS011;7592;51.088;13.732;2023-03-14T06:02:31;2.37;;;0.97;;
14992;SDS011;7592;51.088;13.732;2023-03-14T06:07:31;1.43;;;0.70;;
14992;SDS011;7592;51.088;13.732;2023-03-14T06:12:23;4.00;;;1.40;;
14992;SDS011;7592;51.088;13.732;2023-03-14T06:17:16;3.03;;;1.43;;
14992;SDS011;7592;51.088;13.732;2023-03-14T06:22:16;2.47;;;1.23;;
14992;SDS011;7592;51.088;13.732;2023-03-14T06:27:09;2.70;;;0.80;;
14992;SDS011;7592;51.088;13.732;2023-03-14T06:32:02;3.27;;;0.60;;
14992;SDS011;7592;51.088;13.732;2023-03-14T06:36:57;2.83;;;0.80;;
14992;SDS011;7592;51.088;13.732;2023-03-14T06:41:49;1.57;;;0.90;;
14992;SDS011;7592;51.088;13.732;2023-03-14T06:46:43;1.83;;;0.70;;
14992;SDS011;7592;51.088;13.732;2023-03-14T06:51:35;1.50;;;0.50;;
14992;SDS011;7592;51.088;13.732;2023-03-14T06:56:29;4.60;;;0.80;;
14992;SDS011;7592;51.088;13.732;2023-03-14T07:01:26;4.40;;;0.83;;
14992;SDS011;7592;51.088;13.732;2023-03-14T07:06:27;2.23;;;0.90;;
14992;SDS011;7592;51.088;13.732;2023-03-14T07:11:20;2.70;;;0.80;;
14992;SDS011;7592;51.088;13.732;2023-03-14T07:16:13;3.03;;;1.00;;
14992;SDS011;7592;51.088;13.732;2023-03-14T07:21:06;3.80;;;0.97;;
14992;SDS011;7592;51.088;13.732;2023-03-14T07:26:01;4.07;;;0.80;;
14992;SDS011;7592;51.088;13.732;2023-03-14T07:30:56;1.70;;;0.93;;
14992;SDS011;7592;51.088;13.732;2023-03-14T07:35:54;0.97;;;0.70;;
14992;SDS011;7592;51.088;13.732;2023-03-14T07:40:46;2.17;;;0.57;;
14992;SDS011;7592;51.088;13.732;2023-03-14T07:45:39;0.90;;;0.50;;
14992;SDS011;7592;51.088;13.732;2023-03-14T07:50:33;1.63;;;0.90;;
14992;SDS011;7592;51.088;13.732;2023-03-14T07:55:25;2.40;;;0.70;;
14992;SDS011;7592;51.088;13.732;2023-03-14T08:00:17;0.97;;;0.60;;
14992;SDS011;7592;51.088;13.732;2023-03-14T08:05:10;2.60;;;0.80;;
14992;SDS011;7592;51.088;13.732;2023-03-14T08:10:02;2.10;;;0.83;;
14992;SDS011;7592;51.088;13.732;2023-03-14T08:14:55;1.90;;;0.40;;
14992;SDS011;7592;51.088;13.732;2023-03-14T08:19:47;2.97;;;1.03;;
14992;SDS011;7592;51.088;13.732;2023-03-14T08:24:39;3.07;;;0.90;;
14992;SDS011;7592;51.088;13.732;2023-03-14T08:29:32;5.80;;;1.27;;
14992;SDS011;7592;51.088;13.732;2023-03-14T08:34:24;2.97;;;0.90;;
14992;SDS011;7592;51.088;13.732;2023-03-14T08:39:16;1.33;;;0.70;;
14992;SDS011;7592;51.088;13.732;2023-03-14T08:44:09;2.90;;;0.83;;
14992;SDS011;7592;51.088;13.732;2023-03-14T08:49:02;1.90;;;0.43;;
14992;SDS011;7592;51.088;13.732;2023-03-14T08:53:55;3.87;;;0.50;;
14992;SDS011;7592;51.088;13.732;2023-03-14T08:58:47;4.40;;;1.67;;
14992;SDS011;7592;51.088;13.732;2023-03-14T09:03:39;2.20;;;0.60;;
14992;SDS011;7592;51.088;13.732;2023-03-14T09:08:31;2.13;;;0.80;;
14992;SDS011;7592;51.088;13.732;2023-03-14T09:13:23;1.30;;;0.70;;
14992;SDS011;7592;51.088;13.732;2023-03-14T09:18:15;0.70;;;0.40;;
14992;SDS011;7592;51.088;13.732;2023-03-14T09:23:07;1.83;;;0.60;;
14992;SDS011;7592;51.088;13.732;2023-03-14T09:28:01;1.00;;;0.47;;
14992;SDS011;7592;51.088;13.732;2023-03-14T09:32:53;2.93;;;0.30;;
14992;SDS011;7592;51.088;13.732;2023-03-14T09:37:45;1.60;;;0.60;;
14992;SDS011;7592;51.088;13.732;2023-03-14T09:42:37;1.37;;;0.40;;
14992;SDS011;7592;51.088;13.732;2023-03-14T09:47:33;1.80;;;0.50;;
14992;SDS011;7592;51.088;13.732;2023-03-14T09:52:32;2.50;;;0.50;;
14992;SDS011;7592;51.088;13.732;2023-03-14T09:57:28;2.03;;;0.60;;
14992;SDS011;7592;51.088;13.732;2023-03-14T10:02:21;1.93;;;0.50;;
14992;SDS011;7592;51.088;13.732;2023-03-14T10:07:16;0.83;;;0.60;;
14992;SDS011;7592;51.088;13.732;2023-03-14T10:12:17;0.93;;;0.60;;
14992;SDS011;7592;51.088;13.732;2023-03-14T10:17:11;0.80;;;0.30;;
14992;SDS011;7592;51.088;13.732;2023-03-14T10:22:04;0.83;;;0.70;;
14992;SDS011;7592;51.088;13.732;2023-03-14T10:26:59;0.90;;;0.50;;
14992;SDS011;7592;51.088;13.732;2023-03-14T10:32:03;2.30;;;0.50;;
14992;SDS011;7592;51.088;13.732;2023-03-14T10:37:07;1.23;;;0.27;;
14992;SDS011;7592;51.088;13.732;2023-03-14T10:42:23;2.50;;;0.57;;
14992;SDS011;7592;51.088;13.732;2023-03-14T10:47:23;0.90;;;0.30;;
14992;SDS011;7592;51.088;13.732;2023-03-14T10:52:20;1.10;;;0.40;;
14992;SDS011;7592;51.088;13.732;2023-03-14T10:57:31;1.50;;;0.70;;
14992;SDS011;7592;51.088;13.732;2023-03-14T11:07:56;0.60;;;0.40;;
14992;SDS011;7592;51.088;13.732;2023-03-14T11:27:59;2.23;;;0.33;;
14992;SDS011;7592;51.088;13.732;2023-03-14T11:33:14;1.47;;;0.40;;
14992;SDS011;7592;51.088;13.732;2023-03-14T11:43:13;0.60;;;0.40;;
14992;SDS011;7592;51.088;13.732;2023-03-14T11:53:18;0.60;;;0.30;;
14992;SDS011;7592;51.088;13.732;2023-03-14T11:58:19;0.60;;;0.47;;
14992;SDS011;7592;51.088;13.732;2023-03-14T12:03:21;1.33;;;0.40;;
14992;SDS011;7592;51.088;13.732;2023-03-14T12:08:25;1.17;;;0.30;;
14992;SDS011;7592;51.088;13.732;2023-03-14T12:13:33;2.73;;;0.70;;
14992;SDS011;7592;51.088;13.732;2023-03-14T12:18:33;1.83;;;0.93;;
14992;SDS011;7592;51.088;13.732;2023-03-14T12:23:37;1.90;;;0.53;;
14992;SDS011;7592;51.088;13.732;2023-03-14T12:28:35;2.27;;;0.40;;
14992;SDS011;7592;51.088;13.732;2023-03-14T12:33:28;0.50;;;0.20;;
14992;SDS011;7592;51.088;13.732;2023-03-14T12:38:29;1.27;;;0.30;;
14992;SDS011;7592;51.088;13.732;2023-03-14T12:43:33;1.23;;;0.30;;
14992;SDS011;7592;51.088;13.732;2023-03-14T12:48:26;0.00;;;0.00;;
14992;SDS011;7592;51.088;13.732;2023-03-14T12:53:24;0.50;;;0.30;;
14992;SDS011;7592;51.088;13.732;2023-03-14T13:08:45;1.63;;;0.53;;
14992;SDS011;7592;51.088;13.732;2023-03-14T13:13:44;0.47;;;0.10;;
14992;SDS011;7592;51.088;13.732;2023-03-14T13:18:40;0.30;;;0.20;;
14992;SDS011;7592;51.088;13.732;2023-03-14T13:23:34;0.20;;;0.20;;
14992;SDS011;7592;51.088;13.732;2023-03-14T13:28:29;0.20;;;0.20;;
14992;SDS011;7592;51.088;13.732;2023-03-14T13:33:22;0.50;;;0.20;;
14992;SDS011;7592;51.088;13.732;2023-03-14T13:38:22;0.20;;;0.20;;
14992;SDS011;7592;51.088;13.732;2023-03-14T13:48:09;0.20;;;0.20;;
14992;SDS011;7592;51.088;13.732;2023-03-14T13:53:03;0.50;;;0.10;;
14992;SDS011;7592;51.088;13.732;2023-03-14T13:57:55;0.33;;;0.20;;
14992;SDS011;7592;51.088;13.732;2023-03-14T14:02:47;0.17;;;0.17;;
14992;SDS011;7592;51.088;13.732;2023-03-14T14:07:40;0.60;;;0.30;;
14992;SDS011;7592;51.088;13.732;2023-03-14T14:12:35;2.10;;;0.50;;
14992;SDS011;7592;51.088;13.732;2023-03-14T14:17:41;0.27;;;0.20;;
14992;SDS011;7592;51.088;13.732;2023-03-14T14:22:35;0.30;;;0.23;;
14992;SDS011;7592;51.088;13.732;2023-03-14T14:27:38;0.27;;;0.27;;
14992;SDS011;7592;51.088;13.732;2023-03-14T14:32:36;0.67;;;0.20;;
14992;SDS011;7592;51.088;13.732;2023-03-14T14:37:42;0.30;;;0.10;;
14992;SDS011;7592;51.088;13.732;2023-03-14T14:42:38;0.67;;;0.27;;
14992;SDS011;7592;51.088;13.732;2023-03-14T14:47:32;0.43;;;0.20;;
14992;SDS011;7592;51.088;13.732;2023-03-14T14:52:33;0.10;;;0.10;;
14992;SDS011;7592;51.088;13.732;2023-03-14T14:57:32;0.10;;;0.10;;
14992;SDS011;7592;51.088;13.732;2023-03-14T15:02:31;0.40;;;0.20;;
14992;SDS011;7592;51.088;13.732;2023-03-14T15:07:29;0.87;;;0.20;;
14992;SDS011;7592;51.088;13.732;2023-03-14T15:12:21;0.10;;;0.10;;
14992;SDS011;7592;51.088;13.732;2023-03-14T15:17:16;0.53;;;0.20;;
14992;SDS011;7592;51.088;13.732;2023-03-14T15:22:10;0.10;;;0.10;;
14992;SDS011;7592;51.088;13.732;2023-03-14T15:27:05;1.13;;;0.20;;
14992;SDS011;7592;51.088;13.732;2023-03-14T15:32:04;0.40;;;0.20;;
14992;SDS011;7592;51.088;13.732;2023-03-14T15:36:57;1.33;;;0.20;;
14992;SDS011;7592;51.088;13.732;2023-03-14T15:41:49;0.57;;;0.10;;
14992;SDS011;7592;51.088;13.732;2023-03-14T15:46:41;0.77;;;0.30;;
14992;SDS011;7592;51.088;13.732;2023-03-14T15:51:33;0.60;;;0.37;;
14992;SDS011;7592;51.088;13.732;2023-03-14T15:56:25;0.20;;;0.20;;
14992;SDS011;7592;51.088;13.732;2023-03-14T16:01:19;1.03;;;0.20;;
14992;SDS011;7592;51.088;13.732;2023-03-14T16:06:11;1.07;;;0.47;;
14992;SDS011;7592;51.088;13.732;2023-03-14T16:11:05;1.27;;;0.33;;
14992;SDS011;7592;51.088;13.732;2023-03-14T16:15:59;0.50;;;0.50;;
14992;SDS011;7592;51.088;13.732;2023-03-14T16:20:53;0.63;;;0.63;;
14992;SDS011;7592;51.088;13.732;2023-03-14T16:25:47;0.37;;;0.30;;
14992;SDS011;7592;51.088;13.732;2023-03-14T16:30:39;0.10;;;0.10;;
14992;SDS011;7592;51.088;13.732;2023-03-14T16:35:31;0.50;;;0.20;;
14992;SDS011;7592;51.088;13.732;2023-03-14T16:40:23;0.60;;;0.37;;
14992;SDS011;7592;51.088;13.732;2023-03-14T16:45:15;2.00;;;0.20;;
14992;SDS011;7592;51.088;13.732;2023-03-14T16:50:08;1.70;;;0.30;;
14992;SDS011;7592;51.088;13.732;2023-03-14T16:55:02;0.63;;;0.40;;
14992;SDS011;7592;51.088;13.732;2023-03-14T16:59:56;1.77;;;0.20;;
14992;SDS011;7592;51.088;13.732;2023-03-14T17:04:48;1.17;;;0.37;;
14992;SDS011;7592;51.088;13.732;2023-03-14T17:09:40;1.80;;;0.70;;
14992;SDS011;7592;51.088;13.732;2023-03-14T17:14:32;0.30;;;0.30;;
14992;SDS011;7592;51.088;13.732;2023-03-14T17:19:24;0.40;;;0.40;;
14992;SDS011;7592;51.088;13.732;2023-03-14T17:24:16;0.30;;;0.30;;
14992;SDS011;7592;51.088;13.732;2023-03-14T17:29:10;1.23;;;0.80;;
14992;SDS011;7592;51.088;13.732;2023-03-14T17:34:02;22.23;;;6.70;;
14992;SDS011;7592;51.088;13.732;2023-03-14T17:38:54;0.83;;;0.20;;
14992;SDS011;7592;51.088;13.732;2023-03-14T17:43:48;6.23;;;1.80;;
14992;SDS011;7592;51.088;13.732;2023-03-14T17:48:40;1.93;;;0.50;;
14992;SDS011;7592;51.088;13.732;2023-03-14T17:53:37;3.00;;;1.80;;
14992;SDS011;7592;51.088;13.732;2023-03-14T17:58:29;1.97;;;0.80;;
14992;SDS011;7592;51.088;13.732;2023-03-14T18:03:24;6.13;;;5.47;;
14992;SDS011;7592;51.088;13.732;2023-03-14T18:08:16;8.17;;;2.20;;
14992;SDS011;7592;51.088;13.732;2023-03-14T18:13:08;12.30;;;2.60;;
14992;SDS011;7592;51.088;13.732;2023-03-14T18:18:01;3.97;;;1.00;;
14992;SDS011;7592;51.088;13.732;2023-03-14T18:22:53;3.40;;;1.50;;
14992;SDS011;7592;51.088;13.732;2023-03-14T18:27:46;20.30;;;4.67;;
14992;SDS011;7592;51.088;13.732;2023-03-14T18:32:38;5.90;;;3.90;;
14992;SDS011;7592;51.088;13.732;2023-03-14T18:37:30;2.97;;;1.40;;
14992;SDS011;7592;51.088;13.732;2023-03-14T18:42:22;6.33;;;1.33;;
14992;SDS011;7592;51.088;13.732;2023-03-14T18:47:14;4.00;;;1.30;;
14992;SDS011;7592;51.088;13.732;2023-03-14T18:52:06;1.80;;;0.93;;
14992;SDS011;7592;51.088;13.732;2023-03-14T18:56:58;3.40;;;1.13;;
14992;SDS011;7592;51.088;13.732;2023-03-14T19:01:50;3.37;;;0.90;;
14992;SDS011;7592;51.088;13.732;2023-03-14T19:06:42;3.60;;;1.10;;
14992;SDS011;7592;51.088;13.732;2023-03-14T19:11:34;3.87;;;1.10;;
14992;SDS011;7592;51.088;13.732;2023-03-14T19:16:26;2.17;;;0.87;;
14992;SDS011;7592;51.088;13.732;2023-03-14T19:21:26;3.67;;;1.10;;
14992;SDS011;7592;51.088;13.732;2023-03-14T19:26:18;4.67;;;1.33;;
14992;SDS011;7592;51.088;13.732;2023-03-14T19:31:12;1.70;;;0.90;;
14992;SDS011;7592;51.088;13.732;2023-03-14T19:36:04;3.40;;;1.10;;
14992;SDS011;7592;51.088;13.732;2023-03-14T19:40:57;4.67;;;1.20;;
14992;SDS011;7592;51.088;13.732;2023-03-14T19:45:50;5.53;;;1.50;;
14992;SDS011;7592;51.088;13.732;2023-03-14T19:50:42;5.07;;;1.70;;
14992;SDS011;7592;51.088;13.732;2023-03-14T19:55:34;6.20;;;1.50;;
14992;SDS011;7592;51.088;13.732;2023-03-14T20:00:28;3.83;;;1.73;;
14992;SDS011;7592;51.088;13.732;2023-03-14T20:05:21;5.07;;;1.60;;
14992;SDS011;7592;51.088;13.732;2023-03-14T20:10:16;15.77;;;2.73;;
14992;SDS011;7592;51.088;13.732;2023-03-14T20:15:09;8.00;;;2.00;;
14992;SDS011;7592;51.088;13.732;2023-03-14T20:20:05;4.70;;;1.60;;
14992;SDS011;7592;51.088;13.732;2023-03-14T20:25:00;7.00;;;2.30;;
14992;SDS011;7592;51.088;13.732;2023-03-14T20:29:55;6.53;;;1.97;;
14992;SDS011;7592;51.088;13.732;2023-03-14T20:34:47;6.10;;;2.23;;
14992;SDS011;7592;51.088;13.732;2023-03-14T20:39:39;8.80;;;1.80;;
14992;SDS011;7592;51.088;13.732;2023-03-14T20:44:31;11.87;;;2.03;;
14992;SDS011;7592;51.088;13.732;2023-03-14T20:49:23;9.33;;;2.10;;
14992;SDS011;7592;51.088;13.732;2023-03-14T20:54:15;6.93;;;1.73;;
14992;SDS011;7592;51.088;13.732;2023-03-14T20:59:09;10.03;;;1.70;;
14992;SDS011;7592;51.088;13.732;2023-03-14T21:04:01;8.83;;;1.93;;
14992;SDS011;7592;51.088;13.732;2023-03-14T21:08:53;9.53;;;2.17;;
14992;SDS011;7592;51.088;13.732;2023-03-14T21:13:45;13.47;;;2.87;;
14992;SDS011;7592;51.088;13.732;2023-03-14T21:18:37;16.17;;;2.23;;
14992;SDS011;7592;51.088;13.732;2023-03-14T21:23:29;6.03;;;1.67;;
14992;SDS011;7592;51.088;13.732;2023-03-14T21:28:24;9.63;;;1.97;;
14992;SDS011;7592;51.088;13.732;2023-03-14T21:33:17;11.70;;;2.00;;
14992;SDS011;7592;51.088;13.732;2023-03-14T21:38:09;6.50;;;2.03;;
14992;SDS011;7592;51.088;13.732;2023-03-14T21:43:01;5.90;;;1.63;;
14992;SDS011;7592;51.088;13.732;2023-03-14T21:47:56;5.67;;;2.10;;
14992;SDS011;7592;51.088;13.732;2023-03-14T21:52:50;6.93;;;1.60;;
14992;SDS011;7592;51.088;13.732;2023-03-14T21:57:47;8.53;;;2.00;;
14992;SDS011;7592;51.088;13.732;2023-03-14T22:02:39;9.83;;;1.97;;
14992;SDS011;7592;51.088;13.732;2023-03-14T22:07:37;9.97;;;1.70;;
14992;SDS011;7592;51.088;13.732;2023-03-14T22:12:31;10.13;;;1.87;;
14992;SDS011;7592;51.088;13.732;2023-03-14T22:17:23;24.00;;;5.83;;
14992;SDS011;7592;51.088;13.732;2023-03-14T22:22:17;9.37;;;2.23;;
14992;SDS011;7592;51.088;13.732;2023-03-14T22:27:09;10.97;;;2.20;;
14992;SDS011;7592;51.088;13.732;2023-03-14T22:32:04;13.80;;;2.70;;
14992;SDS011;7592;51.088;13.732;2023-03-14T22:37:01;6.73;;;2.03;;
14992;SDS011;7592;51.088;13.732;2023-03-14T22:41:55;9.80;;;3.67;;
14992;SDS011;7592;51.088;13.732;2023-03-14T22:46:47;10.57;;;2.60;;
14992;SDS011;7592;51.088;13.732;2023-03-14T22:51:39;10.53;;;2.70;;
14992;SDS011;7592;51.088;13.732;2023-03-14T22:56:31;10.40;;;2.23;;
14992;SDS011;7592;51.088;13.732;2023-03-14T23:01:24;6.63;;;1.40;;
14992;SDS011;7592;51.088;13.732;2023-03-14T23:06:16;9.37;;;2.23;;
14992;SDS011;7592;51.088;13.732;2023-03-14T23:11:10;9.33;;;2.77;;
14992;SDS011;7592;51.088;13.732;2023-03-14T23:16:08;8.43;;;2.40;;
14992;SDS011;7592;51.088;13.732;2023-03-14T23:21:06;13.50;;;3.70;;
14992;SDS011;7592;51.088;13.732;2023-03-14T23:26:02;8.40;;;2.93;;
14992;SDS011;7592;51.088;13.732;2023-03-14T23:30:56;12.73;;;3.10;;
14992;SDS011;7592;51.088;13.732;2023-03-14T23:35:49;9.30;;;4.33;;
14992;SDS011;7592;51.088;13.732;2023-03-14T23:40:42;14.00;;;4.87;;
14992;SDS011;7592;51.088;13.732;2023-03-14T23:45:34;10.37;;;5.17;;
14992;SDS011;7592;51.088;13.732;2023-03-14T23:50:26;16.00;;;6.50;;
14992;SDS011;7592;51.088;13.732;2023-03-14T23:55:19;12.13;;;4.90;;
